sensor_id;sensor_type;location;lat;lon;timestamp;P1;durP1;ratioP1;P2;durP2;ratioP2
67174;SDS011;54110;45.778;4.826;2022-08-21T00:00:51;1.85;;;0.80;;
67174;SDS011;54110;45.778;4.826;2022-08-21T00:03:17;1.17;;;0.65;;
67174;SDS011;54110;45.778;4.826;2022-08-21T00:05:44;0.60;;;0.55;;
67174;SDS011;54110;45.778;4.826;2022-08-21T00:08:12;1.17;;;0.45;;
67174;SDS011;54110;45.778;4.826;2022-08-21T00:10:38;1.02;;;0.60;;
67174;SDS011;54110;45.778;4.826;2022-08-21T00:13:05;1.08;;;0.70;;
67174;SDS011;54110;45.778;4.826;2022-08-21T00:15:34;1.33;;;0.73;;
67174;SDS011;54110;45.778;4.826;2022-08-21T00:18:02;1.73;;;0.60;;
67174;SDS011;54110;45.778;4.826;2022-08-21T00:20:28;2.33;;;0.80;;
67174;SDS011;54110;45.778;4.826;2022-08-21T00:22:55;2.30;;;0.65;;
67174;SDS011;54110;45.778;4.826;2022-08-21T00:25:20;0.80;;;0.57;;
67174;SDS011;54110;45.778;4.826;2022-08-21T00:27:46;1.40;;;0.82;;
67174;SDS011;54110;45.778;4.826;2022-08-21T00:30:13;1.83;;;1.00;;
67174;SDS011;54110;45.778;4.826;2022-08-21T00:32:42;1.77;;;0.50;;
67174;SDS011;54110;45.778;4.826;2022-08-21T00:35:09;2.25;;;0.82;;
67174;SDS011;54110;45.778;4.826;2022-08-21T00:37:36;1.08;;;0.70;;
67174;SDS011;54110;45.778;4.826;2022-08-21T00:40:02;1.90;;;0.55;;
67174;SDS011;54110;45.778;4.826;2022-08-21T00:42:31;2.20;;;0.82;;
67174;SDS011;54110;45.778;4.826;2022-08-21T00:44:57;1.38;;;0.65;;
67174;SDS011;54110;45.778;4.826;2022-08-21T00:47:23;0.85;;;0.52;;
67174;SDS011;54110;45.778;4.826;2022-08-21T00:49:50;0.52;;;0.50;;
67174;SDS011;54110;45.778;4.826;2022-08-21T00:52:17;0.75;;;0.60;;
67174;SDS011;54110;45.778;4.826;2022-08-21T00:54:47;3.53;;;0.80;;
67174;SDS011;54110;45.778;4.826;2022-08-21T00:57:15;1.08;;;0.60;;
67174;SDS011;54110;45.778;4.826;2022-08-21T00:59:45;1.08;;;0.70;;
67174;SDS011;54110;45.778;4.826;2022-08-21T01:02:13;0.65;;;0.50;;
67174;SDS011;54110;45.778;4.826;2022-08-21T01:04:40;0.90;;;0.70;;
67174;SDS011;54110;45.778;4.826;2022-08-21T01:07:07;1.08;;;0.70;;
67174;SDS011;54110;45.778;4.826;2022-08-21T01:09:33;1.98;;;0.60;;
67174;SDS011;54110;45.778;4.826;2022-08-21T01:11:59;1.75;;;0.60;;
67174;SDS011;54110;45.778;4.826;2022-08-21T01:14:25;0.73;;;0.50;;
67174;SDS011;54110;45.778;4.826;2022-08-21T01:16:52;2.00;;;0.60;;
67174;SDS011;54110;45.778;4.826;2022-08-21T01:19:20;0.65;;;0.50;;
67174;SDS011;54110;45.778;4.826;2022-08-21T01:21:47;2.65;;;0.80;;
67174;SDS011;54110;45.778;4.826;2022-08-21T01:24:13;1.02;;;0.60;;
67174;SDS011;54110;45.778;4.826;2022-08-21T01:26:39;2.88;;;0.80;;
67174;SDS011;54110;45.778;4.826;2022-08-21T01:29:07;0.70;;;0.63;;
67174;SDS011;54110;45.778;4.826;2022-08-21T01:31:39;0.73;;;0.60;;
67174;SDS011;54110;45.778;4.826;2022-08-21T01:34:05;1.15;;;0.50;;
67174;SDS011;54110;45.778;4.826;2022-08-21T01:36:32;3.60;;;0.70;;
67174;SDS011;54110;45.778;4.826;2022-08-21T01:38:59;1.33;;;0.90;;
67174;SDS011;54110;45.778;4.826;2022-08-21T01:41:25;1.25;;;0.50;;
67174;SDS011;54110;45.778;4.826;2022-08-21T01:43:51;0.75;;;0.68;;
67174;SDS011;54110;45.778;4.826;2022-08-21T01:46:17;1.08;;;0.80;;
67174;SDS011;54110;45.778;4.826;2022-08-21T01:48:43;1.23;;;0.70;;
67174;SDS011;54110;45.778;4.826;2022-08-21T01:51:09;0.65;;;0.52;;
67174;SDS011;54110;45.778;4.826;2022-08-21T01:53:36;1.77;;;0.70;;
67174;SDS011;54110;45.778;4.826;2022-08-21T01:56:05;1.85;;;0.80;;
67174;SDS011;54110;45.778;4.826;2022-08-21T01:58:32;1.67;;;0.60;;
67174;SDS011;54110;45.778;4.826;2022-08-21T02:00:58;0.90;;;0.57;;
67174;SDS011;54110;45.778;4.826;2022-08-21T02:03:24;0.80;;;0.50;;
67174;SDS011;54110;45.778;4.826;2022-08-21T02:05:49;5.25;;;0.60;;
67174;SDS011;54110;45.778;4.826;2022-08-21T02:08:15;1.05;;;0.50;;
67174;SDS011;54110;45.778;4.826;2022-08-21T02:10:41;0.70;;;0.60;;
67174;SDS011;54110;45.778;4.826;2022-08-21T02:13:08;0.70;;;0.60;;
67174;SDS011;54110;45.778;4.826;2022-08-21T02:15:34;3.80;;;0.65;;
67174;SDS011;54110;45.778;4.826;2022-08-21T02:18:01;1.80;;;0.85;;
67174;SDS011;54110;45.778;4.826;2022-08-21T02:20:30;1.02;;;0.60;;
67174;SDS011;54110;45.778;4.826;2022-08-21T02:22:59;1.70;;;0.60;;
67174;SDS011;54110;45.778;4.826;2022-08-21T02:25:25;4.10;;;0.70;;
67174;SDS011;54110;45.778;4.826;2022-08-21T02:27:52;0.95;;;0.52;;
67174;SDS011;54110;45.778;4.826;2022-08-21T02:30:21;2.58;;;0.65;;
67174;SDS011;54110;45.778;4.826;2022-08-21T02:32:48;1.40;;;0.52;;
67174;SDS011;54110;45.778;4.826;2022-08-21T02:35:14;2.25;;;0.80;;
67174;SDS011;54110;45.778;4.826;2022-08-21T02:37:44;1.67;;;0.70;;
67174;SDS011;54110;45.778;4.826;2022-08-21T02:40:11;0.70;;;0.50;;
67174;SDS011;54110;45.778;4.826;2022-08-21T02:42:38;1.85;;;0.52;;
67174;SDS011;54110;45.778;4.826;2022-08-21T02:45:04;1.42;;;0.68;;
67174;SDS011;54110;45.778;4.826;2022-08-21T02:47:32;1.17;;;0.60;;
67174;SDS011;54110;45.778;4.826;2022-08-21T02:49:58;1.05;;;0.50;;
67174;SDS011;54110;45.778;4.826;2022-08-21T02:52:24;1.50;;;0.57;;
67174;SDS011;54110;45.778;4.826;2022-08-21T02:54:49;1.25;;;0.52;;
67174;SDS011;54110;45.778;4.826;2022-08-21T02:57:15;0.80;;;0.47;;
67174;SDS011;54110;45.778;4.826;2022-08-21T02:59:41;1.55;;;0.60;;
67174;SDS011;54110;45.778;4.826;2022-08-21T03:02:07;1.00;;;0.50;;
67174;SDS011;54110;45.778;4.826;2022-08-21T03:04:34;2.10;;;0.60;;
67174;SDS011;54110;45.778;4.826;2022-08-21T03:07:00;0.70;;;0.50;;
67174;SDS011;54110;45.778;4.826;2022-08-21T03:09:26;3.42;;;0.68;;
67174;SDS011;54110;45.778;4.826;2022-08-21T03:11:51;1.55;;;0.60;;
67174;SDS011;54110;45.778;4.826;2022-08-21T03:14:17;1.80;;;0.77;;
67174;SDS011;54110;45.778;4.826;2022-08-21T03:16:43;1.15;;;0.57;;
67174;SDS011;54110;45.778;4.826;2022-08-21T03:19:09;0.82;;;0.50;;
67174;SDS011;54110;45.778;4.826;2022-08-21T03:21:36;1.27;;;0.60;;
67174;SDS011;54110;45.778;4.826;2022-08-21T03:24:02;2.70;;;0.93;;
67174;SDS011;54110;45.778;4.826;2022-08-21T03:26:28;8.10;;;0.80;;
67174;SDS011;54110;45.778;4.826;2022-08-21T03:28:54;1.45;;;0.80;;
67174;SDS011;54110;45.778;4.826;2022-08-21T03:31:19;1.40;;;0.43;;
67174;SDS011;54110;45.778;4.826;2022-08-21T03:33:45;2.08;;;0.85;;
67174;SDS011;54110;45.778;4.826;2022-08-21T03:36:11;1.38;;;0.70;;
67174;SDS011;54110;45.778;4.826;2022-08-21T03:38:38;5.45;;;0.65;;
67174;SDS011;54110;45.778;4.826;2022-08-21T03:41:05;1.67;;;0.70;;
67174;SDS011;54110;45.778;4.826;2022-08-21T03:43:32;3.45;;;0.82;;
67174;SDS011;54110;45.778;4.826;2022-08-21T03:45:58;0.98;;;0.75;;
67174;SDS011;54110;45.778;4.826;2022-08-21T03:48:24;2.03;;;0.75;;
67174;SDS011;54110;45.778;4.826;2022-08-21T03:50:51;1.60;;;0.68;;
67174;SDS011;54110;45.778;4.826;2022-08-21T03:53:17;0.75;;;0.60;;
67174;SDS011;54110;45.778;4.826;2022-08-21T03:55:45;5.55;;;0.77;;
67174;SDS011;54110;45.778;4.826;2022-08-21T03:58:12;1.83;;;0.70;;
67174;SDS011;54110;45.778;4.826;2022-08-21T04:00:38;2.83;;;0.75;;
67174;SDS011;54110;45.778;4.826;2022-08-21T04:03:04;1.75;;;0.70;;
67174;SDS011;54110;45.778;4.826;2022-08-21T04:05:30;6.63;;;0.70;;
67174;SDS011;54110;45.778;4.826;2022-08-21T04:07:56;2.03;;;0.60;;
67174;SDS011;54110;45.778;4.826;2022-08-21T04:10:23;1.77;;;0.73;;
67174;SDS011;54110;45.778;4.826;2022-08-21T04:12:52;0.98;;;0.70;;
67174;SDS011;54110;45.778;4.826;2022-08-21T04:15:19;1.08;;;0.43;;
67174;SDS011;54110;45.778;4.826;2022-08-21T04:17:45;20.63;;;1.17;;
67174;SDS011;54110;45.778;4.826;2022-08-21T04:20:11;5.13;;;0.70;;
67174;SDS011;54110;45.778;4.826;2022-08-21T04:22:36;1.73;;;0.70;;
67174;SDS011;54110;45.778;4.826;2022-08-21T04:25:02;2.25;;;0.90;;
67174;SDS011;54110;45.778;4.826;2022-08-21T04:27:29;1.52;;;0.70;;
67174;SDS011;54110;45.778;4.826;2022-08-21T04:29:56;2.55;;;0.70;;
67174;SDS011;54110;45.778;4.826;2022-08-21T04:32:22;1.20;;;0.52;;
67174;SDS011;54110;45.778;4.826;2022-08-21T04:34:48;1.90;;;0.80;;
67174;SDS011;54110;45.778;4.826;2022-08-21T04:37:14;1.20;;;0.60;;
67174;SDS011;54110;45.778;4.826;2022-08-21T04:39:40;3.47;;;0.80;;
67174;SDS011;54110;45.778;4.826;2022-08-21T04:42:06;10.07;;;0.98;;
67174;SDS011;54110;45.778;4.826;2022-08-21T04:44:32;1.85;;;0.88;;
67174;SDS011;54110;45.778;4.826;2022-08-21T04:46:59;4.78;;;0.70;;
67174;SDS011;54110;45.778;4.826;2022-08-21T04:49:25;0.80;;;0.60;;
67174;SDS011;54110;45.778;4.826;2022-08-21T04:51:51;1.38;;;0.50;;
67174;SDS011;54110;45.778;4.826;2022-08-21T04:54:17;3.00;;;0.70;;
67174;SDS011;54110;45.778;4.826;2022-08-21T04:56:47;0.85;;;0.60;;
67174;SDS011;54110;45.778;4.826;2022-08-21T04:59:19;1.63;;;0.73;;
67174;SDS011;54110;45.778;4.826;2022-08-21T05:01:47;1.40;;;0.70;;
67174;SDS011;54110;45.778;4.826;2022-08-21T05:04:16;2.35;;;0.80;;
67174;SDS011;54110;45.778;4.826;2022-08-21T05:06:47;1.42;;;0.77;;
67174;SDS011;54110;45.778;4.826;2022-08-21T05:09:14;3.78;;;0.95;;
67174;SDS011;54110;45.778;4.826;2022-08-21T05:11:41;2.47;;;0.70;;
67174;SDS011;54110;45.778;4.826;2022-08-21T05:14:08;1.10;;;0.75;;
67174;SDS011;54110;45.778;4.826;2022-08-21T05:16:34;1.40;;;0.57;;
67174;SDS011;54110;45.778;4.826;2022-08-21T05:18:59;1.08;;;0.70;;
67174;SDS011;54110;45.778;4.826;2022-08-21T05:21:26;1.58;;;0.70;;
67174;SDS011;54110;45.778;4.826;2022-08-21T05:23:52;4.95;;;0.80;;
67174;SDS011;54110;45.778;4.826;2022-08-21T05:26:18;1.33;;;0.52;;
67174;SDS011;54110;45.778;4.826;2022-08-21T05:28:44;1.83;;;0.77;;
67174;SDS011;54110;45.778;4.826;2022-08-21T05:31:09;1.60;;;0.50;;
67174;SDS011;54110;45.778;4.826;2022-08-21T05:33:35;2.78;;;0.80;;
67174;SDS011;54110;45.778;4.826;2022-08-21T05:36:01;1.42;;;0.60;;
67174;SDS011;54110;45.778;4.826;2022-08-21T05:38:29;1.92;;;0.80;;
67174;SDS011;54110;45.778;4.826;2022-08-21T05:40:54;3.97;;;1.02;;
67174;SDS011;54110;45.778;4.826;2022-08-21T05:43:20;2.17;;;0.95;;
67174;SDS011;54110;45.778;4.826;2022-08-21T05:45:46;3.22;;;0.68;;
67174;SDS011;54110;45.778;4.826;2022-08-21T05:48:13;2.38;;;0.70;;
67174;SDS011;54110;45.778;4.826;2022-08-21T05:50:40;1.90;;;0.70;;
67174;SDS011;54110;45.778;4.826;2022-08-21T05:53:06;3.65;;;1.00;;
67174;SDS011;54110;45.778;4.826;2022-08-21T05:55:34;3.28;;;0.90;;
67174;SDS011;54110;45.778;4.826;2022-08-21T05:58:00;3.33;;;1.02;;
67174;SDS011;54110;45.778;4.826;2022-08-21T06:00:26;2.75;;;0.82;;
67174;SDS011;54110;45.778;4.826;2022-08-21T06:02:52;2.53;;;1.00;;
67174;SDS011;54110;45.778;4.826;2022-08-21T06:05:18;1.77;;;0.70;;
67174;SDS011;54110;45.778;4.826;2022-08-21T06:07:43;4.97;;;0.90;;
67174;SDS011;54110;45.778;4.826;2022-08-21T06:10:09;3.97;;;0.93;;
67174;SDS011;54110;45.778;4.826;2022-08-21T06:12:37;3.90;;;1.10;;
67174;SDS011;54110;45.778;4.826;2022-08-21T06:15:03;6.38;;;1.00;;
67174;SDS011;54110;45.778;4.826;2022-08-21T06:17:29;7.25;;;0.95;;
67174;SDS011;54110;45.778;4.826;2022-08-21T06:19:55;3.20;;;1.23;;
67174;SDS011;54110;45.778;4.826;2022-08-21T06:22:20;3.03;;;0.82;;
67174;SDS011;54110;45.778;4.826;2022-08-21T06:24:46;3.50;;;0.80;;
67174;SDS011;54110;45.778;4.826;2022-08-21T06:27:12;6.75;;;0.85;;
67174;SDS011;54110;45.778;4.826;2022-08-21T06:29:40;2.15;;;0.70;;
67174;SDS011;54110;45.778;4.826;2022-08-21T06:32:06;1.25;;;0.60;;
67174;SDS011;54110;45.778;4.826;2022-08-21T06:34:31;2.38;;;0.80;;
67174;SDS011;54110;45.778;4.826;2022-08-21T06:37:00;3.13;;;1.08;;
67174;SDS011;54110;45.778;4.826;2022-08-21T06:39:26;11.30;;;1.20;;
67174;SDS011;54110;45.778;4.826;2022-08-21T06:41:51;5.78;;;1.00;;
67174;SDS011;54110;45.778;4.826;2022-08-21T06:44:17;2.92;;;0.80;;
67174;SDS011;54110;45.778;4.826;2022-08-21T06:46:44;1.75;;;0.80;;
67174;SDS011;54110;45.778;4.826;2022-08-21T06:49:10;7.40;;;1.35;;
67174;SDS011;54110;45.778;4.826;2022-08-21T06:51:36;3.08;;;1.25;;
67174;SDS011;54110;45.778;4.826;2022-08-21T06:54:01;7.35;;;1.80;;
67174;SDS011;54110;45.778;4.826;2022-08-21T06:56:27;9.65;;;1.38;;
67174;SDS011;54110;45.778;4.826;2022-08-21T06:58:53;8.82;;;1.50;;
67174;SDS011;54110;45.778;4.826;2022-08-21T07:01:19;4.47;;;1.38;;
67174;SDS011;54110;45.778;4.826;2022-08-21T07:03:47;3.80;;;1.58;;
67174;SDS011;54110;45.778;4.826;2022-08-21T07:06:15;5.43;;;1.30;;
67174;SDS011;54110;45.778;4.826;2022-08-21T07:08:41;15.02;;;1.58;;
67174;SDS011;54110;45.778;4.826;2022-08-21T07:11:09;7.70;;;1.30;;
67174;SDS011;54110;45.778;4.826;2022-08-21T07:13:39;10.02;;;1.30;;
67174;SDS011;54110;45.778;4.826;2022-08-21T07:16:05;11.05;;;2.03;;
67174;SDS011;54110;45.778;4.826;2022-08-21T07:18:31;12.52;;;1.55;;
67174;SDS011;54110;45.778;4.826;2022-08-21T07:20:58;10.27;;;1.52;;
67174;SDS011;54110;45.778;4.826;2022-08-21T07:23:26;5.43;;;1.17;;
67174;SDS011;54110;45.778;4.826;2022-08-21T07:25:53;5.45;;;1.58;;
67174;SDS011;54110;45.778;4.826;2022-08-21T07:28:20;11.13;;;1.48;;
67174;SDS011;54110;45.778;4.826;2022-08-21T07:30:46;17.83;;;1.60;;
67174;SDS011;54110;45.778;4.826;2022-08-21T07:33:17;7.28;;;1.70;;
67174;SDS011;54110;45.778;4.826;2022-08-21T07:35:42;5.45;;;1.80;;
67174;SDS011;54110;45.778;4.826;2022-08-21T07:38:09;8.30;;;1.27;;
67174;SDS011;54110;45.778;4.826;2022-08-21T07:40:35;4.80;;;1.60;;
67174;SDS011;54110;45.778;4.826;2022-08-21T07:43:01;7.38;;;1.80;;
67174;SDS011;54110;45.778;4.826;2022-08-21T07:45:27;5.70;;;1.50;;
67174;SDS011;54110;45.778;4.826;2022-08-21T07:47:53;7.40;;;1.02;;
67174;SDS011;54110;45.778;4.826;2022-08-21T07:50:19;8.60;;;1.77;;
67174;SDS011;54110;45.778;4.826;2022-08-21T07:52:45;5.45;;;1.02;;
67174;SDS011;54110;45.778;4.826;2022-08-21T07:55:13;5.38;;;1.48;;
67174;SDS011;54110;45.778;4.826;2022-08-21T07:57:41;3.42;;;1.00;;
67174;SDS011;54110;45.778;4.826;2022-08-21T08:00:08;5.65;;;1.77;;
67174;SDS011;54110;45.778;4.826;2022-08-21T08:02:36;4.25;;;1.50;;
67174;SDS011;54110;45.778;4.826;2022-08-21T08:05:02;6.13;;;1.98;;
67174;SDS011;54110;45.778;4.826;2022-08-21T08:07:29;5.00;;;1.55;;
67174;SDS011;54110;45.778;4.826;2022-08-21T08:09:55;10.50;;;1.65;;
67174;SDS011;54110;45.778;4.826;2022-08-21T08:12:22;8.88;;;1.50;;
67174;SDS011;54110;45.778;4.826;2022-08-21T08:14:48;4.65;;;1.50;;
67174;SDS011;54110;45.778;4.826;2022-08-21T08:17:13;6.60;;;1.67;;
67174;SDS011;54110;45.778;4.826;2022-08-21T08:19:39;4.38;;;1.58;;
67174;SDS011;54110;45.778;4.826;2022-08-21T08:22:12;8.48;;;1.90;;
67174;SDS011;54110;45.778;4.826;2022-08-21T08:24:38;3.33;;;1.38;;
67174;SDS011;54110;45.778;4.826;2022-08-21T08:27:04;5.55;;;1.60;;
67174;SDS011;54110;45.778;4.826;2022-08-21T08:29:31;6.13;;;1.73;;
67174;SDS011;54110;45.778;4.826;2022-08-21T08:31:56;5.40;;;1.40;;
67174;SDS011;54110;45.778;4.826;2022-08-21T08:34:22;5.75;;;1.42;;
67174;SDS011;54110;45.778;4.826;2022-08-21T08:36:48;3.53;;;1.38;;
67174;SDS011;54110;45.778;4.826;2022-08-21T08:39:14;5.45;;;1.58;;
67174;SDS011;54110;45.778;4.826;2022-08-21T08:41:39;4.13;;;1.40;;
67174;SDS011;54110;45.778;4.826;2022-08-21T08:44:08;4.72;;;1.50;;
67174;SDS011;54110;45.778;4.826;2022-08-21T08:46:42;6.13;;;1.40;;
67174;SDS011;54110;45.778;4.826;2022-08-21T08:49:12;6.05;;;1.33;;
67174;SDS011;54110;45.778;4.826;2022-08-21T08:51:44;8.80;;;1.92;;
67174;SDS011;54110;45.778;4.826;2022-08-21T08:54:17;3.63;;;1.30;;
67174;SDS011;54110;45.778;4.826;2022-08-21T08:56:47;4.55;;;1.60;;
67174;SDS011;54110;45.778;4.826;2022-08-21T08:59:14;6.47;;;1.55;;
67174;SDS011;54110;45.778;4.826;2022-08-21T09:01:44;9.82;;;1.95;;
67174;SDS011;54110;45.778;4.826;2022-08-21T09:04:10;5.65;;;1.65;;
67174;SDS011;54110;45.778;4.826;2022-08-21T09:06:39;3.92;;;1.40;;
67174;SDS011;54110;45.778;4.826;2022-08-21T09:09:18;4.82;;;1.77;;
67174;SDS011;54110;45.778;4.826;2022-08-21T09:11:52;1.88;;;1.08;;
67174;SDS011;54110;45.778;4.826;2022-08-21T09:14:24;5.10;;;1.50;;
67174;SDS011;54110;45.778;4.826;2022-08-21T09:16:59;5.45;;;1.63;;
67174;SDS011;54110;45.778;4.826;2022-08-21T09:19:36;3.75;;;1.40;;
67174;SDS011;54110;45.778;4.826;2022-08-21T09:22:14;2.22;;;1.25;;
67174;SDS011;54110;45.778;4.826;2022-08-21T09:24:49;3.58;;;1.40;;
67174;SDS011;54110;45.778;4.826;2022-08-21T09:27:21;3.95;;;1.50;;
67174;SDS011;54110;45.778;4.826;2022-08-21T09:29:48;3.70;;;1.30;;
67174;SDS011;54110;45.778;4.826;2022-08-21T09:32:18;3.78;;;1.30;;
67174;SDS011;54110;45.778;4.826;2022-08-21T09:34:56;3.88;;;1.38;;
67174;SDS011;54110;45.778;4.826;2022-08-21T09:37:23;3.20;;;1.40;;
67174;SDS011;54110;45.778;4.826;2022-08-21T09:39:50;2.38;;;1.05;;
67174;SDS011;54110;45.778;4.826;2022-08-21T09:42:21;2.55;;;1.02;;
67174;SDS011;54110;45.778;4.826;2022-08-21T09:44:49;2.65;;;1.30;;
67174;SDS011;54110;45.778;4.826;2022-08-21T09:47:31;2.60;;;1.27;;
67174;SDS011;54110;45.778;4.826;2022-08-21T09:50:06;4.22;;;1.50;;
67174;SDS011;54110;45.778;4.826;2022-08-21T09:52:33;3.95;;;1.52;;
67174;SDS011;54110;45.778;4.826;2022-08-21T09:54:59;3.78;;;1.20;;
67174;SDS011;54110;45.778;4.826;2022-08-21T09:57:25;4.68;;;1.40;;
67174;SDS011;54110;45.778;4.826;2022-08-21T09:59:53;2.78;;;1.30;;
67174;SDS011;54110;45.778;4.826;2022-08-21T10:02:22;4.55;;;1.40;;
67174;SDS011;54110;45.778;4.826;2022-08-21T10:04:52;6.72;;;1.50;;
67174;SDS011;54110;45.778;4.826;2022-08-21T10:07:21;3.15;;;1.10;;
67174;SDS011;54110;45.778;4.826;2022-08-21T10:09:57;5.63;;;1.38;;
67174;SDS011;54110;45.778;4.826;2022-08-21T10:12:25;3.75;;;1.48;;
67174;SDS011;54110;45.778;4.826;2022-08-21T10:14:59;3.25;;;1.25;;
67174;SDS011;54110;45.778;4.826;2022-08-21T10:17:31;2.30;;;1.17;;
67174;SDS011;54110;45.778;4.826;2022-08-21T10:20:08;3.88;;;1.20;;
67174;SDS011;54110;45.778;4.826;2022-08-21T10:22:40;1.90;;;1.00;;
67174;SDS011;54110;45.778;4.826;2022-08-21T10:25:14;3.00;;;1.15;;
67174;SDS011;54110;45.778;4.826;2022-08-21T10:27:47;4.43;;;1.13;;
67174;SDS011;54110;45.778;4.826;2022-08-21T10:30:23;2.90;;;1.20;;
67174;SDS011;54110;45.778;4.826;2022-08-21T10:32:57;2.90;;;1.23;;
67174;SDS011;54110;45.778;4.826;2022-08-21T10:35:39;3.85;;;1.20;;
67174;SDS011;54110;45.778;4.826;2022-08-21T10:38:17;3.75;;;1.15;;
67174;SDS011;54110;45.778;4.826;2022-08-21T10:41:04;3.42;;;1.15;;
67174;SDS011;54110;45.778;4.826;2022-08-21T10:43:39;2.05;;;1.20;;
67174;SDS011;54110;45.778;4.826;2022-08-21T10:46:16;2.28;;;1.15;;
67174;SDS011;54110;45.778;4.826;2022-08-21T10:48:50;2.47;;;1.20;;
67174;SDS011;54110;45.778;4.826;2022-08-21T10:51:23;3.47;;;1.48;;
67174;SDS011;54110;45.778;4.826;2022-08-21T10:53:55;1.58;;;1.08;;
67174;SDS011;54110;45.778;4.826;2022-08-21T10:56:28;2.42;;;1.20;;
67174;SDS011;54110;45.778;4.826;2022-08-21T10:59:02;2.65;;;1.02;;
67174;SDS011;54110;45.778;4.826;2022-08-21T11:01:42;2.30;;;1.05;;
67174;SDS011;54110;45.778;4.826;2022-08-21T11:04:13;1.73;;;0.98;;
67174;SDS011;54110;45.778;4.826;2022-08-21T11:06:46;2.53;;;1.10;;
67174;SDS011;54110;45.778;4.826;2022-08-21T11:09:18;3.08;;;1.10;;
67174;SDS011;54110;45.778;4.826;2022-08-21T11:11:47;2.75;;;1.17;;
67174;SDS011;54110;45.778;4.826;2022-08-21T11:14:21;4.38;;;1.17;;
67174;SDS011;54110;45.778;4.826;2022-08-21T11:16:57;2.38;;;1.00;;
67174;SDS011;54110;45.778;4.826;2022-08-21T11:19:29;1.67;;;0.77;;
67174;SDS011;54110;45.778;4.826;2022-08-21T11:22:04;1.45;;;0.98;;
67174;SDS011;54110;45.778;4.826;2022-08-21T11:24:38;2.40;;;1.00;;
67174;SDS011;54110;45.778;4.826;2022-08-21T11:27:09;1.77;;;0.85;;
67174;SDS011;54110;45.778;4.826;2022-08-21T11:29:44;3.55;;;1.20;;
67174;SDS011;54110;45.778;4.826;2022-08-21T11:32:21;2.65;;;1.13;;
67174;SDS011;54110;45.778;4.826;2022-08-21T11:34:58;2.97;;;1.30;;
67174;SDS011;54110;45.778;4.826;2022-08-21T11:37:38;3.22;;;1.10;;
67174;SDS011;54110;45.778;4.826;2022-08-21T11:40:13;2.42;;;1.05;;
67174;SDS011;54110;45.778;4.826;2022-08-21T11:43:03;2.67;;;1.27;;
67174;SDS011;54110;45.778;4.826;2022-08-21T11:45:38;3.25;;;1.35;;
67174;SDS011;54110;45.778;4.826;2022-08-21T11:48:13;2.65;;;1.20;;
67174;SDS011;54110;45.778;4.826;2022-08-21T11:50:46;2.92;;;1.17;;
67174;SDS011;54110;45.778;4.826;2022-08-21T11:53:16;1.75;;;1.10;;
67174;SDS011;54110;45.778;4.826;2022-08-21T11:55:46;2.13;;;1.10;;
67174;SDS011;54110;45.778;4.826;2022-08-21T11:58:15;1.95;;;1.20;;
67174;SDS011;54110;45.778;4.826;2022-08-21T12:00:46;1.40;;;0.80;;
67174;SDS011;54110;45.778;4.826;2022-08-21T12:03:24;2.08;;;1.23;;
67174;SDS011;54110;45.778;4.826;2022-08-21T12:05:53;2.65;;;1.17;;
67174;SDS011;54110;45.778;4.826;2022-08-21T12:08:29;2.03;;;1.00;;
67174;SDS011;54110;45.778;4.826;2022-08-21T12:11:00;1.70;;;1.10;;
67174;SDS011;54110;45.778;4.826;2022-08-21T12:13:30;1.23;;;1.00;;
67174;SDS011;54110;45.778;4.826;2022-08-21T12:16:04;2.42;;;1.00;;
67174;SDS011;54110;45.778;4.826;2022-08-21T12:18:31;3.72;;;1.23;;
67174;SDS011;54110;45.778;4.826;2022-08-21T12:20:59;3.63;;;0.95;;
67174;SDS011;54110;45.778;4.826;2022-08-21T12:23:30;1.95;;;1.13;;
67174;SDS011;54110;45.778;4.826;2022-08-21T12:26:11;2.72;;;1.20;;
67174;SDS011;54110;45.778;4.826;2022-08-21T12:28:45;2.83;;;1.38;;
67174;SDS011;54110;45.778;4.826;2022-08-21T12:31:18;2.17;;;1.25;;
67174;SDS011;54110;45.778;4.826;2022-08-21T12:33:49;2.15;;;1.20;;
67174;SDS011;54110;45.778;4.826;2022-08-21T12:36:19;3.05;;;1.30;;
67174;SDS011;54110;45.778;4.826;2022-08-21T12:38:49;2.50;;;1.15;;
67174;SDS011;54110;45.778;4.826;2022-08-21T12:41:18;2.85;;;1.30;;
67174;SDS011;54110;45.778;4.826;2022-08-21T12:43:47;2.00;;;1.00;;
67174;SDS011;54110;45.778;4.826;2022-08-21T12:46:17;2.55;;;1.20;;
67174;SDS011;54110;45.778;4.826;2022-08-21T12:48:47;1.42;;;0.93;;
67174;SDS011;54110;45.778;4.826;2022-08-21T12:51:17;2.75;;;1.40;;
67174;SDS011;54110;45.778;4.826;2022-08-21T12:53:49;1.60;;;1.00;;
67174;SDS011;54110;45.778;4.826;2022-08-21T12:56:16;1.45;;;1.10;;
67174;SDS011;54110;45.778;4.826;2022-08-21T12:58:44;2.35;;;1.00;;
67174;SDS011;54110;45.778;4.826;2022-08-21T13:01:13;2.38;;;1.40;;
67174;SDS011;54110;45.778;4.826;2022-08-21T13:03:44;1.83;;;0.98;;
67174;SDS011;54110;45.778;4.826;2022-08-21T13:06:12;2.35;;;1.08;;
67174;SDS011;54110;45.778;4.826;2022-08-21T13:08:39;3.13;;;1.10;;
67174;SDS011;54110;45.778;4.826;2022-08-21T13:11:06;3.22;;;1.67;;
67174;SDS011;54110;45.778;4.826;2022-08-21T13:13:32;2.38;;;1.30;;
67174;SDS011;54110;45.778;4.826;2022-08-21T13:15:59;6.25;;;1.50;;
67174;SDS011;54110;45.778;4.826;2022-08-21T13:18:28;21.45;;;1.75;;
67174;SDS011;54110;45.778;4.826;2022-08-21T13:21:04;6.72;;;1.40;;
67174;SDS011;54110;45.778;4.826;2022-08-21T13:23:31;10.63;;;1.48;;
67174;SDS011;54110;45.778;4.826;2022-08-21T13:25:57;6.40;;;1.48;;
67174;SDS011;54110;45.778;4.826;2022-08-21T13:28:31;7.32;;;1.63;;
67174;SDS011;54110;45.778;4.826;2022-08-21T13:30:58;3.97;;;1.80;;
67174;SDS011;54110;45.778;4.826;2022-08-21T13:33:25;11.90;;;1.80;;
67174;SDS011;54110;45.778;4.826;2022-08-21T13:35:52;5.20;;;1.52;;
67174;SDS011;54110;45.778;4.826;2022-08-21T13:38:26;7.80;;;1.70;;
67174;SDS011;54110;45.778;4.826;2022-08-21T13:40:55;10.50;;;1.88;;
67174;SDS011;54110;45.778;4.826;2022-08-21T13:43:26;7.85;;;2.08;;
67174;SDS011;54110;45.778;4.826;2022-08-21T13:45:56;7.20;;;1.85;;
67174;SDS011;54110;45.778;4.826;2022-08-21T13:48:23;7.65;;;2.50;;
67174;SDS011;54110;45.778;4.826;2022-08-21T13:50:51;5.72;;;2.70;;
67174;SDS011;54110;45.778;4.826;2022-08-21T13:53:22;8.75;;;3.50;;
67174;SDS011;54110;45.778;4.826;2022-08-21T13:55:52;6.68;;;2.90;;
67174;SDS011;54110;45.778;4.826;2022-08-21T13:58:26;7.03;;;2.63;;
67174;SDS011;54110;45.778;4.826;2022-08-21T14:00:53;15.23;;;3.63;;
67174;SDS011;54110;45.778;4.826;2022-08-21T14:03:26;10.93;;;3.50;;
67174;SDS011;54110;45.778;4.826;2022-08-21T14:05:57;5.85;;;2.88;;
67174;SDS011;54110;45.778;4.826;2022-08-21T14:08:25;12.73;;;3.60;;
67174;SDS011;54110;45.778;4.826;2022-08-21T14:10:56;9.48;;;3.85;;
67174;SDS011;54110;45.778;4.826;2022-08-21T14:13:27;21.02;;;3.70;;
67174;SDS011;54110;45.778;4.826;2022-08-21T14:15:58;7.78;;;3.42;;
67174;SDS011;54110;45.778;4.826;2022-08-21T14:18:25;9.10;;;3.50;;
67174;SDS011;54110;45.778;4.826;2022-08-21T14:20:51;7.65;;;2.92;;
67174;SDS011;54110;45.778;4.826;2022-08-21T14:23:28;6.68;;;2.90;;
67174;SDS011;54110;45.778;4.826;2022-08-21T14:25:54;4.95;;;3.05;;
67174;SDS011;54110;45.778;4.826;2022-08-21T14:28:26;6.35;;;3.05;;
67174;SDS011;54110;45.778;4.826;2022-08-21T14:30:56;5.72;;;2.83;;
67174;SDS011;54110;45.778;4.826;2022-08-21T14:33:23;8.93;;;2.50;;
67174;SDS011;54110;45.778;4.826;2022-08-21T14:35:51;4.90;;;2.80;;
67174;SDS011;54110;45.778;4.826;2022-08-21T14:38:17;4.63;;;2.35;;
67174;SDS011;54110;45.778;4.826;2022-08-21T14:40:46;4.57;;;2.60;;
67174;SDS011;54110;45.778;4.826;2022-08-21T14:43:14;5.47;;;2.50;;
67174;SDS011;54110;45.778;4.826;2022-08-21T14:45:41;7.80;;;2.90;;
67174;SDS011;54110;45.778;4.826;2022-08-21T14:48:07;5.25;;;2.50;;
67174;SDS011;54110;45.778;4.826;2022-08-21T14:50:33;5.45;;;2.60;;
67174;SDS011;54110;45.778;4.826;2022-08-21T14:52:58;9.02;;;2.35;;
67174;SDS011;54110;45.778;4.826;2022-08-21T14:55:25;8.10;;;2.67;;